sensor_id;sensor_type;location;lat;lon;timestamp;P1;durP1;ratioP1;P2;durP2;ratioP2
50531;SDS011;36483;37.396;-122.212;2023-04-07T00:01:10;4.85;;;1.10;;
50531;SDS011;36483;37.396;-122.212;2023-04-07T00:03:36;3.92;;;1.00;;
50531;SDS011;36483;37.396;-122.212;2023-04-07T00:06:05;3.97;;;1.02;;
50531;SDS011;36483;37.396;-122.212;2023-04-07T00:08:31;3.40;;;0.85;;
50531;SDS011;36483;37.396;-122.212;2023-04-07T00:10:57;4.72;;;1.10;;
50531;SDS011;36483;37.396;-122.212;2023-04-07T00:13:23;4.85;;;1.13;;
50531;SDS011;36483;37.396;-122.212;2023-04-07T00:15:50;4.20;;;0.90;;
50531;SDS011;36483;37.396;-122.212;2023-04-07T00:18:16;5.35;;;1.20;;
50531;SDS011;36483;37.396;-122.212;2023-04-07T00:20:42;3.15;;;0.80;;
50531;SDS011;36483;37.396;-122.212;2023-04-07T00:23:08;3.38;;;1.00;;
50531;SDS011;36483;37.396;-122.212;2023-04-07T00:25:34;3.25;;;1.10;;
50531;SDS011;36483;37.396;-122.212;2023-04-07T00:28:01;2.70;;;1.20;;
50531;SDS011;36483;37.396;-122.212;2023-04-07T00:30:27;3.25;;;1.15;;
50531;SDS011;36483;37.396;-122.212;2023-04-07T00:32:53;3.15;;;0.98;;
50531;SDS011;36483;37.396;-122.212;2023-04-07T00:35:19;1.98;;;1.08;;
50531;SDS011;36483;37.396;-122.212;2023-04-07T00:37:45;4.03;;;1.20;;
50531;SDS011;36483;37.396;-122.212;2023-04-07T00:40:12;3.83;;;1.10;;
50531;SDS011;36483;37.396;-122.212;2023-04-07T00:42:38;2.90;;;1.20;;
50531;SDS011;36483;37.396;-122.212;2023-04-07T00:45:04;2.45;;;1.00;;
50531;SDS011;36483;37.396;-122.212;2023-04-07T00:47:30;3.13;;;1.17;;
50531;SDS011;36483;37.396;-122.212;2023-04-07T00:49:57;4.05;;;1.27;;
50531;SDS011;36483;37.396;-122.212;2023-04-07T00:52:23;5.68;;;1.33;;
50531;SDS011;36483;37.396;-122.212;2023-04-07T00:54:56;4.05;;;1.10;;
50531;SDS011;36483;37.396;-122.212;2023-04-07T00:57:22;3.28;;;1.00;;
50531;SDS011;36483;37.396;-122.212;2023-04-07T00:59:53;3.10;;;1.20;;
50531;SDS011;36483;37.396;-122.212;2023-04-07T01:10:26;3.13;;;1.00;;
50531;SDS011;36483;37.396;-122.212;2023-04-07T01:13:11;2.83;;;1.00;;
50531;SDS011;36483;37.396;-122.212;2023-04-07T01:15:49;2.33;;;0.90;;
50531;SDS011;36483;37.396;-122.212;2023-04-07T01:18:21;3.20;;;0.93;;
50531;SDS011;36483;37.396;-122.212;2023-04-07T01:20:50;3.03;;;1.30;;
50531;SDS011;36483;37.396;-122.212;2023-04-07T01:23:27;1.90;;;1.00;;
50531;SDS011;36483;37.396;-122.212;2023-04-07T01:26:16;3.83;;;0.90;;
50531;SDS011;36483;37.396;-122.212;2023-04-07T01:31:22;3.42;;;1.13;;
50531;SDS011;36483;37.396;-122.212;2023-04-07T01:33:51;3.42;;;1.10;;
50531;SDS011;36483;37.396;-122.212;2023-04-07T01:36:20;2.35;;;1.20;;
50531;SDS011;36483;37.396;-122.212;2023-04-07T01:38:47;3.95;;;1.05;;
50531;SDS011;36483;37.396;-122.212;2023-04-07T01:41:14;2.08;;;1.10;;
50531;SDS011;36483;37.396;-122.212;2023-04-07T01:43:40;3.45;;;1.30;;
50531;SDS011;36483;37.396;-122.212;2023-04-07T01:46:07;3.10;;;1.20;;
50531;SDS011;36483;37.396;-122.212;2023-04-07T01:48:34;3.60;;;1.23;;
50531;SDS011;36483;37.396;-122.212;2023-04-07T01:51:02;3.42;;;1.33;;
50531;SDS011;36483;37.396;-122.212;2023-04-07T01:53:30;5.25;;;1.55;;
50531;SDS011;36483;37.396;-122.212;2023-04-07T01:55:56;3.83;;;1.20;;
50531;SDS011;36483;37.396;-122.212;2023-04-07T01:58:22;5.70;;;1.48;;
50531;SDS011;36483;37.396;-122.212;2023-04-07T02:00:50;4.35;;;1.35;;
50531;SDS011;36483;37.396;-122.212;2023-04-07T02:03:21;3.08;;;1.05;;
50531;SDS011;36483;37.396;-122.212;2023-04-07T02:05:49;5.38;;;1.30;;
50531;SDS011;36483;37.396;-122.212;2023-04-07T02:08:19;3.03;;;1.13;;
50531;SDS011;36483;37.396;-122.212;2023-04-07T02:10:46;4.78;;;1.10;;
50531;SDS011;36483;37.396;-122.212;2023-04-07T02:13:15;3.92;;;1.20;;
50531;SDS011;36483;37.396;-122.212;2023-04-07T02:15:43;3.08;;;0.90;;
50531;SDS011;36483;37.396;-122.212;2023-04-07T02:18:11;2.03;;;0.90;;
50531;SDS011;36483;37.396;-122.212;2023-04-07T02:20:38;3.72;;;1.00;;
50531;SDS011;36483;37.396;-122.212;2023-04-07T02:23:06;2.67;;;1.20;;
50531;SDS011;36483;37.396;-122.212;2023-04-07T02:25:32;3.90;;;1.13;;
50531;SDS011;36483;37.396;-122.212;2023-04-07T02:27:59;4.93;;;1.10;;
50531;SDS011;36483;37.396;-122.212;2023-04-07T02:30:26;3.40;;;1.30;;
50531;SDS011;36483;37.396;-122.212;2023-04-07T02:32:52;2.85;;;1.20;;
50531;SDS011;36483;37.396;-122.212;2023-04-07T02:35:19;3.70;;;1.05;;
50531;SDS011;36483;37.396;-122.212;2023-04-07T02:37:45;5.05;;;1.20;;
50531;SDS011;36483;37.396;-122.212;2023-04-07T02:40:12;2.92;;;1.00;;
50531;SDS011;36483;37.396;-122.212;2023-04-07T02:42:38;1.75;;;0.90;;
50531;SDS011;36483;37.396;-122.212;2023-04-07T02:45:05;2.33;;;1.00;;
50531;SDS011;36483;37.396;-122.212;2023-04-07T02:47:34;3.80;;;1.13;;
50531;SDS011;36483;37.396;-122.212;2023-04-07T02:50:01;1.75;;;0.90;;
50531;SDS011;36483;37.396;-122.212;2023-04-07T02:52:27;3.17;;;1.02;;
50531;SDS011;36483;37.396;-122.212;2023-04-07T02:54:53;1.65;;;0.70;;
50531;SDS011;36483;37.396;-122.212;2023-04-07T02:57:20;2.17;;;1.08;;
50531;SDS011;36483;37.396;-122.212;2023-04-07T02:59:46;1.67;;;0.80;;
50531;SDS011;36483;37.396;-122.212;2023-04-07T03:02:12;2.15;;;0.88;;
50531;SDS011;36483;37.396;-122.212;2023-04-07T03:04:38;1.52;;;1.10;;
50531;SDS011;36483;37.396;-122.212;2023-04-07T03:07:05;3.40;;;1.00;;
50531;SDS011;36483;37.396;-122.212;2023-04-07T03:09:31;1.02;;;0.70;;
50531;SDS011;36483;37.396;-122.212;2023-04-07T03:11:57;1.92;;;0.95;;
50531;SDS011;36483;37.396;-122.212;2023-04-07T03:14:24;1.55;;;0.80;;
50531;SDS011;36483;37.396;-122.212;2023-04-07T03:16:50;2.20;;;0.90;;
50531;SDS011;36483;37.396;-122.212;2023-04-07T03:19:16;3.20;;;1.05;;
50531;SDS011;36483;37.396;-122.212;2023-04-07T03:21:42;2.50;;;0.93;;
50531;SDS011;36483;37.396;-122.212;2023-04-07T03:24:08;2.13;;;1.00;;
50531;SDS011;36483;37.396;-122.212;2023-04-07T03:26:34;2.72;;;1.10;;
50531;SDS011;36483;37.396;-122.212;2023-04-07T03:29:01;4.00;;;1.50;;
50531;SDS011;36483;37.396;-122.212;2023-04-07T03:31:28;2.60;;;1.20;;
50531;SDS011;36483;37.396;-122.212;2023-04-07T03:33:54;2.75;;;1.27;;
50531;SDS011;36483;37.396;-122.212;2023-04-07T03:36:20;5.10;;;1.40;;
50531;SDS011;36483;37.396;-122.212;2023-04-07T03:38:47;4.93;;;1.40;;
50531;SDS011;36483;37.396;-122.212;2023-04-07T03:41:13;4.45;;;1.48;;
50531;SDS011;36483;37.396;-122.212;2023-04-07T03:43:39;3.45;;;1.42;;
50531;SDS011;36483;37.396;-122.212;2023-04-07T03:46:06;5.00;;;1.33;;
50531;SDS011;36483;37.396;-122.212;2023-04-07T03:48:32;3.47;;;1.35;;
50531;SDS011;36483;37.396;-122.212;2023-04-07T03:50:58;3.80;;;1.33;;
50531;SDS011;36483;37.396;-122.212;2023-04-07T03:53:24;4.95;;;1.50;;
50531;SDS011;36483;37.396;-122.212;2023-04-07T03:55:50;8.85;;;1.50;;
50531;SDS011;36483;37.396;-122.212;2023-04-07T03:58:16;4.57;;;1.40;;
50531;SDS011;36483;37.396;-122.212;2023-04-07T04:00:43;2.53;;;1.00;;
50531;SDS011;36483;37.396;-122.212;2023-04-07T04:03:09;1.98;;;1.00;;
50531;SDS011;36483;37.396;-122.212;2023-04-07T04:05:35;2.88;;;1.00;;
50531;SDS011;36483;37.396;-122.212;2023-04-07T04:08:01;3.33;;;1.08;;
50531;SDS011;36483;37.396;-122.212;2023-04-07T04:10:27;4.05;;;1.20;;
50531;SDS011;36483;37.396;-122.212;2023-04-07T04:12:54;1.80;;;1.05;;
50531;SDS011;36483;37.396;-122.212;2023-04-07T04:15:20;4.45;;;1.10;;
50531;SDS011;36483;37.396;-122.212;2023-04-07T04:17:46;2.90;;;0.80;;
50531;SDS011;36483;37.396;-122.212;2023-04-07T04:20:12;2.03;;;0.80;;
50531;SDS011;36483;37.396;-122.212;2023-04-07T04:22:38;2.92;;;0.90;;
50531;SDS011;36483;37.396;-122.212;2023-04-07T04:25:04;4.22;;;1.00;;
50531;SDS011;36483;37.396;-122.212;2023-04-07T04:27:31;2.85;;;1.08;;
50531;SDS011;36483;37.396;-122.212;2023-04-07T04:29:57;1.63;;;0.85;;
50531;SDS011;36483;37.396;-122.212;2023-04-07T04:32:23;4.00;;;1.10;;
50531;SDS011;36483;37.396;-122.212;2023-04-07T04:34:49;2.28;;;1.15;;
50531;SDS011;36483;37.396;-122.212;2023-04-07T04:37:15;2.55;;;0.93;;
50531;SDS011;36483;37.396;-122.212;2023-04-07T04:39:41;2.30;;;1.15;;
50531;SDS011;36483;37.396;-122.212;2023-04-07T04:42:08;2.60;;;1.00;;
50531;SDS011;36483;37.396;-122.212;2023-04-07T04:44:34;4.10;;;1.23;;
50531;SDS011;36483;37.396;-122.212;2023-04-07T04:47:01;3.03;;;1.20;;
50531;SDS011;36483;37.396;-122.212;2023-04-07T04:49:27;3.47;;;1.17;;
50531;SDS011;36483;37.396;-122.212;2023-04-07T04:51:53;5.13;;;1.08;;
50531;SDS011;36483;37.396;-122.212;2023-04-07T04:54:19;3.45;;;1.30;;
50531;SDS011;36483;37.396;-122.212;2023-04-07T04:56:45;2.95;;;1.20;;
50531;SDS011;36483;37.396;-122.212;2023-04-07T04:59:11;3.25;;;1.20;;
50531;SDS011;36483;37.396;-122.212;2023-04-07T05:01:37;4.82;;;1.40;;
50531;SDS011;36483;37.396;-122.212;2023-04-07T05:04:04;2.63;;;1.00;;
50531;SDS011;36483;37.396;-122.212;2023-04-07T05:06:30;4.10;;;1.20;;
50531;SDS011;36483;37.396;-122.212;2023-04-07T05:08:56;2.83;;;1.38;;
50531;SDS011;36483;37.396;-122.212;2023-04-07T05:11:23;2.88;;;1.25;;
50531;SDS011;36483;37.396;-122.212;2023-04-07T05:13:49;3.50;;;1.30;;
50531;SDS011;36483;37.396;-122.212;2023-04-07T05:16:15;2.75;;;1.05;;
50531;SDS011;36483;37.396;-122.212;2023-04-07T05:18:41;3.38;;;1.38;;
50531;SDS011;36483;37.396;-122.212;2023-04-07T05:21:07;3.33;;;1.27;;
50531;SDS011;36483;37.396;-122.212;2023-04-07T05:23:34;4.10;;;1.35;;
50531;SDS011;36483;37.396;-122.212;2023-04-07T05:26:00;5.10;;;1.38;;
50531;SDS011;36483;37.396;-122.212;2023-04-07T05:28:26;6.30;;;1.50;;
50531;SDS011;36483;37.396;-122.212;2023-04-07T05:30:52;4.45;;;1.20;;
50531;SDS011;36483;37.396;-122.212;2023-04-07T05:33:19;4.30;;;1.25;;
50531;SDS011;36483;37.396;-122.212;2023-04-07T05:35:45;3.20;;;1.30;;
50531;SDS011;36483;37.396;-122.212;2023-04-07T05:38:12;4.72;;;1.70;;
50531;SDS011;36483;37.396;-122.212;2023-04-07T05:40:39;8.23;;;1.58;;
50531;SDS011;36483;37.396;-122.212;2023-04-07T05:43:06;3.95;;;1.48;;
50531;SDS011;36483;37.396;-122.212;2023-04-07T05:45:32;6.32;;;1.40;;
50531;SDS011;36483;37.396;-122.212;2023-04-07T05:47:58;4.25;;;1.50;;
50531;SDS011;36483;37.396;-122.212;2023-04-07T05:50:25;4.95;;;1.33;;
50531;SDS011;36483;37.396;-122.212;2023-04-07T05:52:51;4.85;;;1.45;;
50531;SDS011;36483;37.396;-122.212;2023-04-07T05:55:17;3.80;;;1.20;;
50531;SDS011;36483;37.396;-122.212;2023-04-07T05:57:43;4.38;;;1.30;;
50531;SDS011;36483;37.396;-122.212;2023-04-07T06:00:09;3.03;;;1.13;;
50531;SDS011;36483;37.396;-122.212;2023-04-07T06:02:36;5.18;;;1.45;;
50531;SDS011;36483;37.396;-122.212;2023-04-07T06:05:04;4.75;;;1.85;;
50531;SDS011;36483;37.396;-122.212;2023-04-07T06:07:31;4.47;;;1.25;;
50531;SDS011;36483;37.396;-122.212;2023-04-07T06:09:57;4.90;;;1.35;;
50531;SDS011;36483;37.396;-122.212;2023-04-07T06:12:23;4.70;;;1.27;;
50531;SDS011;36483;37.396;-122.212;2023-04-07T06:14:53;5.28;;;1.35;;
50531;SDS011;36483;37.396;-122.212;2023-04-07T06:17:19;6.03;;;1.15;;
50531;SDS011;36483;37.396;-122.212;2023-04-07T06:20:06;4.65;;;1.20;;
50531;SDS011;36483;37.396;-122.212;2023-04-07T06:22:32;6.85;;;1.40;;
50531;SDS011;36483;37.396;-122.212;2023-04-07T06:24:59;2.85;;;1.00;;
50531;SDS011;36483;37.396;-122.212;2023-04-07T06:27:25;2.45;;;1.10;;
50531;SDS011;36483;37.396;-122.212;2023-04-07T06:29:51;3.92;;;1.27;;
50531;SDS011;36483;37.396;-122.212;2023-04-07T06:32:17;6.18;;;1.40;;
50531;SDS011;36483;37.396;-122.212;2023-04-07T06:34:44;4.75;;;1.58;;
50531;SDS011;36483;37.396;-122.212;2023-04-07T06:37:10;5.93;;;1.67;;
50531;SDS011;36483;37.396;-122.212;2023-04-07T06:39:37;5.07;;;1.45;;
50531;SDS011;36483;37.396;-122.212;2023-04-07T06:42:23;7.07;;;1.20;;
50531;SDS011;36483;37.396;-122.212;2023-04-07T06:44:49;4.80;;;1.48;;
50531;SDS011;36483;37.396;-122.212;2023-04-07T06:47:15;5.60;;;1.20;;
50531;SDS011;36483;37.396;-122.212;2023-04-07T06:49:41;4.90;;;1.63;;
50531;SDS011;36483;37.396;-122.212;2023-04-07T06:52:08;4.72;;;1.27;;
50531;SDS011;36483;37.396;-122.212;2023-04-07T06:54:34;7.38;;;1.48;;
50531;SDS011;36483;37.396;-122.212;2023-04-07T06:57:00;4.18;;;1.10;;
50531;SDS011;36483;37.396;-122.212;2023-04-07T06:59:32;3.97;;;1.10;;
50531;SDS011;36483;37.396;-122.212;2023-04-07T07:01:59;4.75;;;1.40;;
50531;SDS011;36483;37.396;-122.212;2023-04-07T07:04:45;2.95;;;1.10;;
50531;SDS011;36483;37.396;-122.212;2023-04-07T07:07:11;5.30;;;1.50;;
50531;SDS011;36483;37.396;-122.212;2023-04-07T07:09:37;3.90;;;1.20;;
50531;SDS011;36483;37.396;-122.212;2023-04-07T07:12:03;6.85;;;1.40;;
50531;SDS011;36483;37.396;-122.212;2023-04-07T07:14:30;5.55;;;1.10;;
50531;SDS011;36483;37.396;-122.212;2023-04-07T07:16:56;3.63;;;1.30;;
50531;SDS011;36483;37.396;-122.212;2023-04-07T07:19:22;4.38;;;1.15;;
50531;SDS011;36483;37.396;-122.212;2023-04-07T07:21:48;3.72;;;1.23;;
50531;SDS011;36483;37.396;-122.212;2023-04-07T07:24:15;4.22;;;1.10;;
50531;SDS011;36483;37.396;-122.212;2023-04-07T07:26:41;7.53;;;1.30;;
50531;SDS011;36483;37.396;-122.212;2023-04-07T07:29:07;4.90;;;1.38;;
50531;SDS011;36483;37.396;-122.212;2023-04-07T07:31:33;4.93;;;1.27;;
50531;SDS011;36483;37.396;-122.212;2023-04-07T07:33:59;9.15;;;1.42;;
50531;SDS011;36483;37.396;-122.212;2023-04-07T07:36:25;5.05;;;1.25;;
50531;SDS011;36483;37.396;-122.212;2023-04-07T07:38:51;4.10;;;1.17;;
50531;SDS011;36483;37.396;-122.212;2023-04-07T07:41:18;3.53;;;1.25;;
50531;SDS011;36483;37.396;-122.212;2023-04-07T07:43:45;7.53;;;1.40;;
50531;SDS011;36483;37.396;-122.212;2023-04-07T07:46:11;4.00;;;1.25;;
50531;SDS011;36483;37.396;-122.212;2023-04-07T07:48:37;4.50;;;1.20;;
50531;SDS011;36483;37.396;-122.212;2023-04-07T07:51:03;2.58;;;1.00;;
50531;SDS011;36483;37.396;-122.212;2023-04-07T07:53:30;2.70;;;1.27;;
50531;SDS011;36483;37.396;-122.212;2023-04-07T07:55:56;6.63;;;1.38;;
50531;SDS011;36483;37.396;-122.212;2023-04-07T07:58:22;5.32;;;1.30;;
50531;SDS011;36483;37.396;-122.212;2023-04-07T08:00:48;4.22;;;1.42;;
50531;SDS011;36483;37.396;-122.212;2023-04-07T08:03:15;3.55;;;1.27;;
50531;SDS011;36483;37.396;-122.212;2023-04-07T08:05:41;3.63;;;1.08;;
50531;SDS011;36483;37.396;-122.212;2023-04-07T08:08:08;3.63;;;1.15;;
50531;SDS011;36483;37.396;-122.212;2023-04-07T08:10:34;3.15;;;1.10;;
50531;SDS011;36483;37.396;-122.212;2023-04-07T08:13:00;4.55;;;1.30;;
50531;SDS011;36483;37.396;-122.212;2023-04-07T08:15:26;3.55;;;1.20;;
50531;SDS011;36483;37.396;-122.212;2023-04-07T08:17:53;3.72;;;1.00;;
50531;SDS011;36483;37.396;-122.212;2023-04-07T08:20:19;5.05;;;1.20;;
50531;SDS011;36483;37.396;-122.212;2023-04-07T08:22:45;4.60;;;1.20;;
50531;SDS011;36483;37.396;-122.212;2023-04-07T08:25:11;4.85;;;1.10;;
50531;SDS011;36483;37.396;-122.212;2023-04-07T08:27:38;4.97;;;1.38;;
50531;SDS011;36483;37.396;-122.212;2023-04-07T08:30:04;3.97;;;1.27;;
50531;SDS011;36483;37.396;-122.212;2023-04-07T08:32:39;4.50;;;1.20;;
50531;SDS011;36483;37.396;-122.212;2023-04-07T08:35:06;3.83;;;1.08;;
50531;SDS011;36483;37.396;-122.212;2023-04-07T08:37:32;4.78;;;1.25;;
50531;SDS011;36483;37.396;-122.212;2023-04-07T08:39:59;7.60;;;1.80;;
50531;SDS011;36483;37.396;-122.212;2023-04-07T08:42:29;4.22;;;1.17;;
50531;SDS011;36483;37.396;-122.212;2023-04-07T08:45:00;3.17;;;0.93;;
50531;SDS011;36483;37.396;-122.212;2023-04-07T08:47:31;3.33;;;1.15;;
50531;SDS011;36483;37.396;-122.212;2023-04-07T08:50:05;5.97;;;1.42;;
50531;SDS011;36483;37.396;-122.212;2023-04-07T08:52:54;5.78;;;1.08;;
50531;SDS011;36483;37.396;-122.212;2023-04-07T08:55:19;4.97;;;1.17;;
50531;SDS011;36483;37.396;-122.212;2023-04-07T08:57:46;3.28;;;1.27;;
50531;SDS011;36483;37.396;-122.212;2023-04-07T09:00:12;3.38;;;1.20;;
50531;SDS011;36483;37.396;-122.212;2023-04-07T09:02:40;2.78;;;1.05;;
50531;SDS011;36483;37.396;-122.212;2023-04-07T09:05:10;5.20;;;1.10;;
50531;SDS011;36483;37.396;-122.212;2023-04-07T09:07:37;4.85;;;1.38;;
50531;SDS011;36483;37.396;-122.212;2023-04-07T09:10:13;2.90;;;1.15;;
50531;SDS011;36483;37.396;-122.212;2023-04-07T09:12:39;4.50;;;1.08;;
50531;SDS011;36483;37.396;-122.212;2023-04-07T09:15:05;6.60;;;1.25;;
50531;SDS011;36483;37.396;-122.212;2023-04-07T09:17:32;6.32;;;1.40;;
50531;SDS011;36483;37.396;-122.212;2023-04-07T09:19:58;4.70;;;1.35;;
50531;SDS011;36483;37.396;-122.212;2023-04-07T09:27:57;7.03;;;1.60;;
50531;SDS011;36483;37.396;-122.212;2023-04-07T09:30:26;2.65;;;1.00;;
50531;SDS011;36483;37.396;-122.212;2023-04-07T09:32:57;3.85;;;1.10;;
50531;SDS011;36483;37.396;-122.212;2023-04-07T09:35:24;3.25;;;1.20;;
50531;SDS011;36483;37.396;-122.212;2023-04-07T09:40:32;3.10;;;1.00;;
50531;SDS011;36483;37.396;-122.212;2023-04-07T09:42:58;4.72;;;1.02;;
50531;SDS011;36483;37.396;-122.212;2023-04-07T09:45:25;4.25;;;1.48;;
50531;SDS011;36483;37.396;-122.212;2023-04-07T09:47:52;3.25;;;1.05;;
50531;SDS011;36483;37.396;-122.212;2023-04-07T09:50:32;3.63;;;1.15;;
50531;SDS011;36483;37.396;-122.212;2023-04-07T09:53:02;5.05;;;1.35;;
50531;SDS011;36483;37.396;-122.212;2023-04-07T09:55:29;4.75;;;1.23;;
50531;SDS011;36483;37.396;-122.212;2023-04-07T09:57:56;3.75;;;1.10;;
50531;SDS011;36483;37.396;-122.212;2023-04-07T10:00:22;4.55;;;1.40;;
50531;SDS011;36483;37.396;-122.212;2023-04-07T10:02:49;2.90;;;1.10;;
50531;SDS011;36483;37.396;-122.212;2023-04-07T10:05:16;4.82;;;1.30;;
50531;SDS011;36483;37.396;-122.212;2023-04-07T10:07:45;2.90;;;1.02;;
50531;SDS011;36483;37.396;-122.212;2023-04-07T10:10:12;4.32;;;1.23;;
50531;SDS011;36483;37.396;-122.212;2023-04-07T10:12:38;3.90;;;1.27;;
50531;SDS011;36483;37.396;-122.212;2023-04-07T10:15:05;6.45;;;1.33;;
50531;SDS011;36483;37.396;-122.212;2023-04-07T10:17:32;4.75;;;1.27;;
50531;SDS011;36483;37.396;-122.212;2023-04-07T10:20:00;5.70;;;1.55;;
50531;SDS011;36483;37.396;-122.212;2023-04-07T10:22:27;3.38;;;1.60;;
50531;SDS011;36483;37.396;-122.212;2023-04-07T10:25:27;5.32;;;1.48;;
50531;SDS011;36483;37.396;-122.212;2023-04-07T10:27:48;2.35;;;1.27;;
50531;SDS011;36483;37.396;-122.212;2023-04-07T10:30:19;4.50;;;1.25;;
50531;SDS011;36483;37.396;-122.212;2023-04-07T10:32:49;4.40;;;1.35;;
50531;SDS011;36483;37.396;-122.212;2023-04-07T10:35:16;3.60;;;1.40;;
50531;SDS011;36483;37.396;-122.212;2023-04-07T10:40:41;6.72;;;1.60;;
50531;SDS011;36483;37.396;-122.212;2023-04-07T10:43:08;3.67;;;1.42;;
50531;SDS011;36483;37.396;-122.212;2023-04-07T10:48:14;2.60;;;1.20;;
50531;SDS011;36483;37.396;-122.212;2023-04-07T10:50:41;7.88;;;1.20;;
50531;SDS011;36483;37.396;-122.212;2023-04-07T10:53:08;5.28;;;1.50;;
50531;SDS011;36483;37.396;-122.212;2023-04-07T10:55:38;3.67;;;1.27;;
50531;SDS011;36483;37.396;-122.212;2023-04-07T10:58:24;4.60;;;1.55;;
50531;SDS011;36483;37.396;-122.212;2023-04-07T11:03:25;5.28;;;1.50;;
50531;SDS011;36483;37.396;-122.212;2023-04-07T11:06:01;4.88;;;1.50;;
50531;SDS011;36483;37.396;-122.212;2023-04-07T11:08:38;4.72;;;1.40;;
50531;SDS011;36483;37.396;-122.212;2023-04-07T11:11:12;4.90;;;1.58;;
50531;SDS011;36483;37.396;-122.212;2023-04-07T11:13:42;3.38;;;1.45;;
50531;SDS011;36483;37.396;-122.212;2023-04-07T11:16:12;3.95;;;1.45;;
50531;SDS011;36483;37.396;-122.212;2023-04-07T11:18:40;2.65;;;1.25;;
50531;SDS011;36483;37.396;-122.212;2023-04-07T11:21:07;4.65;;;1.40;;
50531;SDS011;36483;37.396;-122.212;2023-04-07T11:23:37;3.60;;;1.40;;
50531;SDS011;36483;37.396;-122.212;2023-04-07T11:26:11;6.32;;;1.63;;
50531;SDS011;36483;37.396;-122.212;2023-04-07T11:28:49;3.47;;;1.40;;
50531;SDS011;36483;37.396;-122.212;2023-04-07T11:31:26;5.60;;;1.50;;
50531;SDS011;36483;37.396;-122.212;2023-04-07T11:33:56;6.03;;;1.70;;
50531;SDS011;36483;37.396;-122.212;2023-04-07T11:36:28;4.93;;;1.25;;
50531;SDS011;36483;37.396;-122.212;2023-04-07T11:39:04;4.40;;;1.80;;
50531;SDS011;36483;37.396;-122.212;2023-04-07T11:41:31;4.18;;;1.63;;
50531;SDS011;36483;37.396;-122.212;2023-04-07T11:44:05;5.10;;;1.55;;
50531;SDS011;36483;37.396;-122.212;2023-04-07T11:46:35;5.15;;;1.60;;
50531;SDS011;36483;37.396;-122.212;2023-04-07T11:49:20;4.30;;;1.60;;
50531;SDS011;36483;37.396;-122.212;2023-04-07T11:52:01;3.85;;;1.58;;
50531;SDS011;36483;37.396;-122.212;2023-04-07T11:54:43;6.75;;;1.63;;
50531;SDS011;36483;37.396;-122.212;2023-04-07T11:57:26;6.03;;;1.52;;
50531;SDS011;36483;37.396;-122.212;2023-04-07T12:00:06;5.70;;;1.88;;
50531;SDS011;36483;37.396;-122.212;2023-04-07T12:02:33;4.32;;;1.60;;
50531;SDS011;36483;37.396;-122.212;2023-04-07T12:05:00;4.55;;;1.50;;
50531;SDS011;36483;37.396;-122.212;2023-04-07T12:07:26;6.05;;;2.00;;
50531;SDS011;36483;37.396;-122.212;2023-04-07T12:09:53;4.80;;;1.60;;
50531;SDS011;36483;37.396;-122.212;2023-04-07T12:12:26;4.03;;;1.63;;
50531;SDS011;36483;37.396;-122.212;2023-04-07T12:14:54;4.95;;;1.60;;
50531;SDS011;36483;37.396;-122.212;2023-04-07T12:17:20;7.72;;;1.55;;
50531;SDS011;36483;37.396;-122.212;2023-04-07T12:19:47;5.75;;;1.60;;
50531;SDS011;36483;37.396;-122.212;2023-04-07T12:22:13;5.20;;;1.80;;
50531;SDS011;36483;37.396;-122.212;2023-04-07T12:24:40;4.28;;;1.50;;
50531;SDS011;36483;37.396;-122.212;2023-04-07T12:27:06;4.28;;;2.00;;
50531;SDS011;36483;37.396;-122.212;2023-04-07T12:29:33;3.63;;;1.85;;
50531;SDS011;36483;37.396;-122.212;2023-04-07T12:31:59;6.22;;;1.60;;
50531;SDS011;36483;37.396;-122.212;2023-04-07T12:34:25;8.18;;;2.17;;
50531;SDS011;36483;37.396;-122.212;2023-04-07T12:36:52;6.18;;;1.70;;
50531;SDS011;36483;37.396;-122.212;2023-04-07T12:39:18;6.03;;;1.65;;
50531;SDS011;36483;37.396;-122.212;2023-04-07T12:41:44;5.03;;;1.80;;
50531;SDS011;36483;37.396;-122.212;2023-04-07T12:44:11;8.13;;;1.67;;
50531;SDS011;36483;37.396;-122.212;2023-04-07T12:46:38;3.97;;;1.65;;
50531;SDS011;36483;37.396;-122.212;2023-04-07T12:49:06;5.18;;;1.80;;
50531;SDS011;36483;37.396;-122.212;2023-04-07T12:51:32;4.05;;;1.70;;
50531;SDS011;36483;37.396;-122.212;2023-04-07T12:53:58;5.43;;;2.20;;
50531;SDS011;36483;37.396;-122.212;2023-04-07T12:56:28;3.45;;;1.60;;
50531;SDS011;36483;37.396;-122.212;2023-04-07T12:58:54;5.57;;;1.60;;
50531;SDS011;36483;37.396;-122.212;2023-04-07T13:01:21;6.57;;;1.63;;
50531;SDS011;36483;37.396;-122.212;2023-04-07T13:03:47;4.80;;;1.88;;
50531;SDS011;36483;37.396;-122.212;2023-04-07T13:06:13;7.07;;;1.83;;
50531;SDS011;36483;37.396;-122.212;2023-04-07T13:08:40;4.70;;;1.80;;
50531;SDS011;36483;37.396;-122.212;2023-04-07T13:11:06;4.93;;;1.75;;
50531;SDS011;36483;37.396;-122.212;2023-04-07T13:13:52;5.82;;;2.10;;
50531;SDS011;36483;37.396;-122.212;2023-04-07T13:16:18;5.10;;;1.80;;
50531;SDS011;36483;37.396;-122.212;2023-04-07T13:18:44;3.15;;;1.60;;
50531;SDS011;36483;37.396;-122.212;2023-04-07T13:21:10;4.85;;;1.85;;
50531;SDS011;36483;37.396;-122.212;2023-04-07T13:23:36;6.50;;;1.95;;
50531;SDS011;36483;37.396;-122.212;2023-04-07T13:26:03;5.25;;;1.70;;
50531;SDS011;36483;37.396;-122.212;2023-04-07T13:28:29;4.45;;;1.67;;
50531;SDS011;36483;37.396;-122.212;2023-04-07T13:30:55;4.32;;;1.80;;
50531;SDS011;36483;37.396;-122.212;2023-04-07T13:33:21;4.63;;;2.10;;
50531;SDS011;36483;37.396;-122.212;2023-04-07T13:35:48;5.57;;;1.75;;
50531;SDS011;36483;37.396;-122.212;2023-04-07T13:38:14;6.40;;;1.90;;
50531;SDS011;36483;37.396;-122.212;2023-04-07T13:40:40;5.78;;;2.03;;
50531;SDS011;36483;37.396;-122.212;2023-04-07T13:43:09;4.28;;;1.52;;
50531;SDS011;36483;37.396;-122.212;2023-04-07T13:45:36;4.40;;;1.77;;
50531;SDS011;36483;37.396;-122.212;2023-04-07T13:48:03;6.63;;;2.00;;
50531;SDS011;36483;37.396;-122.212;2023-04-07T13:50:29;4.72;;;2.00;;
50531;SDS011;36483;37.396;-122.212;2023-04-07T13:52:56;4.00;;;1.58;;
50531;SDS011;36483;37.396;-122.212;2023-04-07T13:55:22;6.78;;;1.70;;
50531;SDS011;36483;37.396;-122.212;2023-04-07T13:57:48;3.63;;;1.70;;
50531;SDS011;36483;37.396;-122.212;2023-04-07T14:00:14;6.05;;;2.47;;
50531;SDS011;36483;37.396;-122.212;2023-04-07T14:02:41;3.90;;;2.03;;
50531;SDS011;36483;37.396;-122.212;2023-04-07T14:05:10;5.95;;;1.85;;
50531;SDS011;36483;37.396;-122.212;2023-04-07T14:07:36;7.28;;;1.90;;
50531;SDS011;36483;37.396;-122.212;2023-04-07T14:10:02;6.15;;;1.77;;
50531;SDS011;36483;37.396;-122.212;2023-04-07T14:12:28;4.95;;;1.85;;
50531;SDS011;36483;37.396;-122.212;2023-04-07T14:14:54;3.10;;;1.70;;
50531;SDS011;36483;37.396;-122.212;2023-04-07T14:17:21;8.35;;;2.10;;
50531;SDS011;36483;37.396;-122.212;2023-04-07T14:19:47;4.82;;;1.75;;
50531;SDS011;36483;37.396;-122.212;2023-04-07T14:22:13;5.47;;;1.77;;
50531;SDS011;36483;37.396;-122.212;2023-04-07T14:24:40;4.78;;;2.05;;
50531;SDS011;36483;37.396;-122.212;2023-04-07T14:27:06;4.43;;;1.80;;
50531;SDS011;36483;37.396;-122.212;2023-04-07T14:29:32;3.38;;;1.60;;
50531;SDS011;36483;37.396;-122.212;2023-04-07T14:31:58;5.88;;;1.90;;
50531;SDS011;36483;37.396;-122.212;2023-04-07T14:34:24;3.83;;;1.60;;
50531;SDS011;36483;37.396;-122.212;2023-04-07T14:36:53;5.50;;;1.98;;
50531;SDS011;36483;37.396;-122.212;2023-04-07T14:39:21;4.45;;;2.10;;